Time,TemperatureF,DewpointF,PressureIn,WindDirection,WindDirectionDegrees,WindSpeedMPH,WindSpeedGustMPH,Humidity,HourlyPrecipIn,Conditions,Clouds,dailyrainin,SoftwareType,DateUTC
2013-02-28 00:00:00,33.1,28.5,29.57,West,270,7.2,11.8,83,0.00,CLR,SKC,0.08,WeatherDisplay:10.37,2013-02-28 05:00:00,
2013-02-28 00:05:00,33.3,28.7,29.57,West,270,3.1,9.2,83,0.00,RA,SKC,0.00,WeatherDisplay:10.37,2013-02-28 05:05:00,
2013-02-28 00:10:00,33.1,28.5,29.57,SSW,202,1.4,4.6,83,0.00,RA,SKC,0.00,WeatherDisplay:10.37,2013-02-28 05:10:00,
2013-02-28 00:15:00,33.3,28.7,29.57,WNW,292,8.1,10.4,83,0.00,CLR,SKC,0.00,WeatherDisplay:10.37,2013-02-28 05:15:00,
2013-02-28 00:20:00,33.1,28.5,29.57,WSW,248,4.5,6.9,83,0.00,CLR,SKC,0.00,WeatherDisplay:10.37,2013-02-28 05:20:00,
2013-02-28 00:25:00,33.3,28.7,29.57,SW,225,6.9,11.5,83,0.00,CLR,SKC,0.00,WeatherDisplay:10.37,2013-02-28 05:25:00,
2013-02-28 00:30:00,33.3,28.7,29.57,West,270,5.5,12.7,83,0.00,CLR,SKC,0.00,WeatherDisplay:10.37,2013-02-28 05:30:00,
2013-02-28 00:35:00,33.3,28.7,29.57,West,270,7.0,12.7,83,0.00,CLR,SKC,0.00,WeatherDisplay:10.37,2013-02-28 05:35:00,
2013-02-28 00:40:00,33.3,28.7,29.57,West,270,5.4,12.7,83,0.00,CLR,SKC,0.00,WeatherDisplay:10.37,2013-02-28 05:40:00,
2013-02-28 00:45:00,33.3,28.7,29.58,SW,225,3.3,8.1,83,0.00,CLR,SKC,0.00,WeatherDisplay:10.37,2013-02-28 05:45:00,
2013-02-28 00:50:00,33.3,28.7,29.58,West,270,4.3,6.9,83,0.00,CLR,SKC,0.00,WeatherDisplay:10.37,2013-02-28 05:50:00,
2013-02-28 00:55:00,33.3,28.7,29.58,West,270,2.2,3.5,83,0.00,CLR,SKC,0.00,WeatherDisplay:10.37,2013-02-28 05:55:00,
2013-02-28 01:00:00,33.3,28.7,29.58,SW,225,4.4,10.1,83,0.00,CLR,SKC,0.00,WeatherDisplay:10.37,2013-02-28 06:00:00,
2013-02-28 01:05:00,33.3,28.7,29.58,WNW,292,7.6,13.8,83,0.00,CLR,SKC,0.00,WeatherDisplay:10.37,2013-02-28 06:05:00,
2013-02-28 01:10:00,33.3,28.7,29.59,WSW,248,5.8,9.2,83,0.00,CLR,SKC,0.00,WeatherDisplay:10.37,2013-02-28 06:10:00,
2013-02-28 01:15:00,33.3,28.7,29.59,West,270,6.3,9.2,83,0.00,CLR,SKC,0.00,WeatherDisplay:10.37,2013-02-28 06:15:00,
2013-02-28 01:20:00,33.3,28.7,29.59,WNW,292,7.2,12.7,83,0.00,CLR,SKC,0.00,WeatherDisplay:10.37,2013-02-28 06:20:00,
2013-02-28 01:25:00,33.3,28.4,29.59,West,270,4.2,9.2,82,0.00,CLR,SKC,0.00,WeatherDisplay:10.37,2013-02-28 06:25:00,
2013-02-28 01:30:00,33.3,28.4,29.59,West,270,7.3,11.5,82,0.00,CLR,SKC,0.00,WeatherDisplay:10.37,2013-02-28 06:30:00,
2013-02-28 01:35:00,33.3,28.4,29.59,West,270,4.3,5.8,82,0.00,CLR,SKC,0.00,WeatherDisplay:10.37,2013-02-28 06:35:00,
2013-02-28 01:40:00,33.4,28.5,29.59,WNW,292,6.4,10.4,82,0.00,CLR,SKC,0.00,WeatherDisplay:10.37,2013-02-28 06:40:00,
2013-02-28 01:45:00,33.4,28.5,29.59,West,270,3.3,8.7,82,0.00,CLR,SKC,0.00,WeatherDisplay:10.37,2013-02-28 06:45:00,
2013-02-28 01:50:00,33.4,28.5,29.60,WSW,248,5.7,8.3,82,0.00,CLR,SKC,0.00,WeatherDisplay:10.37,2013-02-28 06:50:00,
2013-02-28 01:55:00,33.4,28.5,29.60,West,270,4.7,6.9,82,0.00,CLR,SKC,0.00,WeatherDisplay:10.37,2013-02-28 06:55:00,
2013-02-28 02:00:00,33.4,28.5,29.60,West,270,4.0,6.5,82,0.00,CLR,SKC,0.00,WeatherDisplay:10.37,2013-02-28 07:00:00,
2013-02-28 02:05:00,33.4,28.5,29.60,West,270,3.8,4.6,82,0.00,CLR,SKC,0.00,WeatherDisplay:10.37,2013-02-28 07:05:00,
2013-02-28 02:10:00,33.4,28.5,29.60,West,270,5.1,9.2,82,0.00,CLR,SKC,0.00,WeatherDisplay:10.37,2013-02-28 07:10:00,
2013-02-28 02:15:00,33.4,28.8,29.61,WNW,292,3.9,5.8,83,0.00,CLR,SKC,0.00,WeatherDisplay:10.37,2013-02-28 07:15:00,
2013-02-28 02:20:00,33.4,28.5,29.61,NW,315,4.6,5.8,82,0.00,CLR,SKC,0.00,WeatherDisplay:10.37,2013-02-28 07:20:00,
2013-02-28 02:25:00,33.4,28.5,29.60,West,270,4.7,8.1,82,0.00,CLR,SKC,0.00,WeatherDisplay:10.37,2013-02-28 07:25:00,
2013-02-28 02:30:00,33.4,28.5,29.61,West,270,6.0,9.2,82,0.00,CLR,SKC,0.00,WeatherDisplay:10.37,2013-02-28 07:30:00,
2013-02-28 02:35:00,33.4,28.5,29.60,West,270,5.7,8.1,82,0.00,CLR,SKC,0.00,WeatherDisplay:10.37,2013-02-28 07:35:00,
2013-02-28 02:40:00,33.4,28.5,29.61,WNW,292,4.2,7.2,82,0.00,CLR,SKC,0.00,WeatherDisplay:10.37,2013-02-28 07:40:00,
2013-02-28 02:45:00,33.4,28.5,29.60,WNW,292,3.2,4.6,82,0.00,CLR,SKC,0.00,WeatherDisplay:10.37,2013-02-28 07:45:00,
2013-02-28 02:50:00,33.4,28.5,29.61,WNW,292,3.7,5.8,82,0.00,CLR,SKC,0.00,WeatherDisplay:10.37,2013-02-28 07:50:00,
2013-02-28 02:55:00,33.4,28.5,29.61,West,270,4.3,6.3,82,0.00,CLR,SKC,0.00,WeatherDisplay:10.37,2013-02-28 07:55:00,
2013-02-28 03:00:00,33.4,28.5,29.61,West,270,3.7,6.3,82,0.00,CLR,SKC,0.00,WeatherDisplay:10.37,2013-02-28 08:00:00,
2013-02-28 03:05:00,33.4,28.5,29.60,West,270,5.5,8.1,82,0.00,CLR,SKC,0.00,WeatherDisplay:10.37,2013-02-28 08:05:00,
2013-02-28 03:10:00,33.4,28.5,29.60,WNW,292,5.5,13.8,82,0.00,CLR,SKC,0.00,WeatherDisplay:10.37,2013-02-28 08:10:00,
2013-02-28 03:15:00,33.4,28.5,29.60,East,90,4.5,13.8,82,0.00,CLR,SKC,0.00,WeatherDisplay:10.37,2013-02-28 08:15:00,
2013-02-28 03:20:00,33.4,28.5,29.60,West,270,3.2,7.6,82,0.00,CLR,SKC,0.00,WeatherDisplay:10.37,2013-02-28 08:20:00,
2013-02-28 03:25:00,33.4,28.5,29.61,WNW,292,1.3,3.5,82,0.00,CLR,SKC,0.00,WeatherDisplay:10.37,2013-02-28 08:25:00,
2013-02-28 03:30:00,33.4,28.5,29.61,WNW,292,6.2,10.7,82,0.00,CLR,SKC,0.00,WeatherDisplay:10.37,2013-02-28 08:30:00,
2013-02-28 03:35:00,33.4,28.5,29.61,WSW,248,5.7,8.1,82,0.00,CLR,SKC,0.00,WeatherDisplay:10.37,2013-02-28 08:35:00,
2013-02-28 03:40:00,33.4,28.5,29.61,WNW,292,4.0,7.4,82,0.00,CLR,SKC,0.00,WeatherDisplay:10.37,2013-02-28 08:40:00,
2013-02-28 03:45:00,33.4,28.5,29.61,West,270,2.4,6.9,82,0.00,CLR,SKC,0.00,WeatherDisplay:10.37,2013-02-28 08:45:00,
2013-02-28 03:50:00,33.4,28.5,29.61,West,270,7.1,9.2,82,0.00,CLR,SKC,0.00,WeatherDisplay:10.37,2013-02-28 08:50:00,
2013-02-28 03:55:00,33.4,28.5,29.61,West,270,7.3,11.5,82,0.00,CLR,SKC,0.00,WeatherDisplay:10.37,2013-02-28 08:55:00,
2013-02-28 04:00:00,33.4,28.5,29.62,WSW,248,3.6,6.9,82,0.00,CLR,SKC,0.00,WeatherDisplay:10.37,2013-02-28 09:00:00,
2013-02-28 04:05:00,33.6,28.7,29.62,WNW,292,4.3,6.9,82,0.00,CLR,SKC,0.00,WeatherDisplay:10.37,2013-02-28 09:05:00,
2013-02-28 04:10:00,33.6,28.7,29.62,WNW,292,4.5,8.1,82,0.00,CLR,SKC,0.00,WeatherDisplay:10.37,2013-02-28 09:10:00,
2013-02-28 04:15:00,33.6,28.7,29.62,NW,315,2.7,4.6,82,0.00,CLR,SKC,0.00,WeatherDisplay:10.37,2013-02-28 09:15:00,
2013-02-28 04:20:00,33.6,28.7,29.61,West,270,3.8,8.1,82,0.00,CLR,SKC,0.00,WeatherDisplay:10.37,2013-02-28 09:20:00,
2013-02-28 04:25:00,33.6,28.7,29.61,NW,315,5.0,9.2,82,0.00,CLR,SKC,0.00,WeatherDisplay:10.37,2013-02-28 09:25:00,
2013-02-28 04:30:00,33.6,28.7,29.61,WNW,292,5.6,8.1,82,0.00,CLR,SKC,0.00,WeatherDisplay:10.37,2013-02-28 09:30:00,
2013-02-28 04:35:00,33.6,28.7,29.61,WNW,292,5.5,9.2,82,0.00,CLR,SKC,0.00,WeatherDisplay:10.37,2013-02-28 09:35:00,
2013-02-28 04:40:00,33.6,28.7,29.61,NW,315,4.8,8.1,82,0.00,CLR,SKC,0.00,WeatherDisplay:10.37,2013-02-28 09:40:00,
2013-02-28 04:45:00,33.6,28.7,29.61,West,270,3.3,6.5,82,0.00,CLR,SKC,0.00,WeatherDisplay:10.37,2013-02-28 09:45:00,
2013-02-28 04:50:00,33.8,28.9,29.61,West,270,5.9,8.1,82,0.00,CLR,SKC,0.00,WeatherDisplay:10.37,2013-02-28 09:50:00,
2013-02-28 04:55:00,33.8,28.9,29.62,SW,225,1.9,4.6,82,0.00,CLR,SKC,0.00,WeatherDisplay:10.37,2013-02-28 09:55:00,
2013-02-28 05:00:00,33.8,28.9,29.62,WNW,292,4.1,6.9,82,0.00,CLR,SKC,0.00,WeatherDisplay:10.37,2013-02-28 10:00:00,
2013-02-28 05:05:00,34.0,29.1,29.62,WNW,292,1.7,3.5,82,0.00,CLR,SKC,0.00,WeatherDisplay:10.37,2013-02-28 10:05:00,
2013-02-28 05:10:00,34.0,29.1,29.62,NNW,338,5.3,8.1,82,0.00,CLR,SKC,0.00,WeatherDisplay:10.37,2013-02-28 10:10:00,
2013-02-28 05:15:00,34.0,29.1,29.63,WNW,292,9.0,11.5,82,0.00,CLR,SKC,0.00,WeatherDisplay:10.37,2013-02-28 10:15:00,
2013-02-28 05:20:00,34.0,29.1,29.63,West,270,4.7,5.8,82,0.00,CLR,SKC,0.00,WeatherDisplay:10.37,2013-02-28 10:20:00,
2013-02-28 05:25:00,34.0,29.1,29.63,WNW,292,5.1,5.8,82,0.00,CLR,SKC,0.00,WeatherDisplay:10.37,2013-02-28 10:25:00,
2013-02-28 05:30:00,34.0,29.1,29.63,NW,315,3.6,4.6,82,0.00,CLR,SKC,0.00,WeatherDisplay:10.37,2013-02-28 10:30:00,
2013-02-28 05:35:00,34.0,29.1,29.63,WNW,292,3.3,6.9,82,0.00,CLR,SKC,0.00,WeatherDisplay:10.37,2013-02-28 10:35:00,
2013-02-28 05:40:00,34.0,29.1,29.64,West,270,4.2,8.1,82,0.00,CLR,SKC,0.00,WeatherDisplay:10.37,2013-02-28 10:40:00,
2013-02-28 05:45:00,34.0,29.1,29.64,NW,315,5.6,8.1,82,0.00,CLR,SKC,0.00,WeatherDisplay:10.37,2013-02-28 10:45:00,
2013-02-28 05:50:00,34.0,29.1,29.64,WNW,292,1.6,3.5,82,0.00,CLR,SKC,0.00,WeatherDisplay:10.37,2013-02-28 10:50:00,
2013-02-28 05:55:00,34.2,29.5,29.65,NW,315,1.2,3.5,83,0.00,CLR,SKC,0.00,WeatherDisplay:10.37,2013-02-28 10:55:00,
2013-02-28 06:00:00,34.2,29.5,29.65,WNW,292,6.0,9.2,83,0.00,CLR,SKC,0.00,WeatherDisplay:10.37,2013-02-28 11:00:00,
2013-02-28 06:05:00,34.2,29.5,29.65,WNW,292,5.9,9.2,83,0.00,CLR,SKC,0.00,WeatherDisplay:10.37,2013-02-28 11:05:00,
2013-02-28 06:10:00,34.2,29.5,29.65,WNW,292,1.4,2.3,83,0.00,CLR,SKC,0.00,WeatherDisplay:10.37,2013-02-28 11:10:00,
2013-02-28 06:15:00,34.2,29.5,29.65,WNW,292,3.7,5.8,83,0.00,CLR,SKC,0.00,WeatherDisplay:10.37,2013-02-28 11:15:00,
2013-02-28 06:20:00,34.2,29.5,29.65,WNW,292,3.1,5.8,83,0.00,CLR,SKC,0.00,WeatherDisplay:10.37,2013-02-28 11:20:00,
2013-02-28 06:25:00,34.2,29.5,29.65,WNW,292,1.5,2.3,83,0.00,CLR,SKC,0.00,WeatherDisplay:10.37,2013-02-28 11:25:00,
2013-02-28 06:30:00,34.2,29.5,29.65,NW,315,3.3,6.9,83,0.00,CLR,SKC,0.00,WeatherDisplay:10.37,2013-02-28 11:30:00,
2013-02-28 06:35:00,34.2,29.5,29.65,WNW,292,5.7,8.1,83,0.00,CLR,SKC,0.00,WeatherDisplay:10.37,2013-02-28 11:35:00,
2013-02-28 06:40:00,34.2,29.5,29.66,WNW,292,5.9,9.2,83,0.00,CLR,SKC,0.00,WeatherDisplay:10.37,2013-02-28 11:40:00,
2013-02-28 06:45:00,34.2,29.5,29.65,NW,315,3.9,6.9,83,0.00,CLR,SKC,0.00,WeatherDisplay:10.37,2013-02-28 11:45:00,
2013-02-28 06:50:00,34.2,29.5,29.66,West,270,7.5,9.2,83,0.00,CLR,SKC,0.00,WeatherDisplay:10.37,2013-02-28 11:50:00,
2013-02-28 06:55:00,34.0,29.4,29.66,WNW,292,6.6,9.2,83,0.00,CLR,SKC,0.00,WeatherDisplay:10.37,2013-02-28 11:55:00,
2013-02-28 07:00:00,34.0,29.4,29.66,NW,315,5.3,5.8,83,0.00,CLR,SKC,0.00,WeatherDisplay:10.37,2013-02-28 12:00:00,
2013-02-28 07:05:00,34.0,29.4,29.66,WNW,292,6.9,8.1,83,0.00,CLR,SKC,0.00,WeatherDisplay:10.37,2013-02-28 12:05:00,
2013-02-28 07:10:00,34.0,29.4,29.66,WNW,292,3.7,9.2,83,0.00,CLR,SKC,0.00,WeatherDisplay:10.37,2013-02-28 12:10:00,
2013-02-28 07:15:00,34.2,29.5,29.66,WNW,292,6.8,8.1,83,0.00,CLR,SKC,0.00,WeatherDisplay:10.37,2013-02-28 12:15:00,
2013-02-28 07:20:00,34.2,29.5,29.67,WNW,292,5.9,11.5,83,0.00,CLR,SKC,0.00,WeatherDisplay:10.37,2013-02-28 12:20:00,
2013-02-28 07:25:00,34.2,29.5,29.67,West,270,8.6,10.4,83,0.00,CLR,SKC,0.00,WeatherDisplay:10.37,2013-02-28 12:25:00,
2013-02-28 07:30:00,34.2,29.5,29.67,NW,315,6.9,11.5,83,0.00,CLR,SKC,0.00,WeatherDisplay:10.37,2013-02-28 12:30:00,
2013-02-28 07:35:00,34.3,29.7,29.67,NW,315,3.7,9.4,83,0.00,CLR,SKC,0.00,WeatherDisplay:10.37,2013-02-28 12:35:00,
2013-02-28 07:40:00,34.3,29.7,29.67,West,270,4.0,6.9,83,0.00,CLR,SKC,0.00,WeatherDisplay:10.37,2013-02-28 12:40:00,
2013-02-28 07:45:00,34.3,29.7,29.67,West,270,4.9,5.8,83,0.00,CLR,SKC,0.00,WeatherDisplay:10.37,2013-02-28 12:45:00,
2013-02-28 07:50:00,34.3,29.7,29.67,WNW,292,3.0,7.8,83,0.00,CLR,SKC,0.00,WeatherDisplay:10.37,2013-02-28 12:50:00,
2013-02-28 07:55:00,34.3,29.7,29.67,NNW,338,4.0,4.6,83,0.00,CLR,SKC,0.00,WeatherDisplay:10.37,2013-02-28 12:55:00,
2013-02-28 08:00:00,34.5,29.9,29.67,NW,315,2.3,3.5,83,0.00,CLR,SKC,0.00,WeatherDisplay:10.37,2013-02-28 13:00:00,
2013-02-28 08:05:00,34.5,29.9,29.67,NW,315,4.3,6.9,83,0.00,CLR,SKC,0.00,WeatherDisplay:10.37,2013-02-28 13:05:00,
2013-02-28 08:10:00,34.7,30.1,29.67,West,270,6.0,10.4,83,0.00,CLR,SKC,0.00,WeatherDisplay:10.37,2013-02-28 13:10:00,
2013-02-28 08:15:00,34.9,30.2,29.68,West,270,4.1,6.9,83,0.00,CLR,SKC,0.00,WeatherDisplay:10.37,2013-02-28 13:15:00,
2013-02-28 08:20:00,34.9,30.2,29.68,West,270,8.5,11.5,83,0.00,CLR,SKC,0.00,WeatherDisplay:10.37,2013-02-28 13:20:00,
2013-02-28 08:25:00,34.9,30.2,29.68,West,270,2.1,3.5,83,0.00,CLR,SKC,0.00,WeatherDisplay:10.37,2013-02-28 13:25:00,
2013-02-28 08:30:00,34.9,30.2,29.68,NW,315,3.8,4.6,83,0.00,CLR,SKC,0.00,WeatherDisplay:10.37,2013-02-28 13:30:00,
2013-02-28 08:35:00,35.1,30.4,29.68,WNW,292,3.9,6.9,83,0.00,CLR,SKC,0.00,WeatherDisplay:10.37,2013-02-28 13:35:00,
2013-02-28 08:40:00,35.2,30.6,29.69,WNW,292,2.4,4.6,83,0.00,CLR,SKC,0.00,WeatherDisplay:10.37,2013-02-28 13:40:00,
2013-02-28 08:45:00,35.2,30.6,29.69,WNW,292,4.7,9.2,83,0.00,CLR,SKC,0.00,WeatherDisplay:10.37,2013-02-28 13:45:00,
2013-02-28 08:50:00,35.4,30.8,29.69,NW,315,3.0,6.9,83,0.00,CLR,SKC,0.00,WeatherDisplay:10.37,2013-02-28 13:50:00,
2013-02-28 08:55:00,35.4,31.1,29.70,NW,315,4.1,6.9,84,0.00,CLR,SKC,0.00,WeatherDisplay:10.37,2013-02-28 13:55:00,
2013-02-28 09:00:00,35.4,31.1,29.70,WNW,292,1.9,4.6,84,0.00,CLR,SKC,0.00,WeatherDisplay:10.37,2013-02-28 14:00:00,
2013-02-28 09:05:00,35.4,31.1,29.70,WNW,292,4.2,8.1,84,0.00,CLR,SKC,0.00,WeatherDisplay:10.37,2013-02-28 14:05:00,
2013-02-28 09:10:00,35.4,31.1,29.71,WNW,292,6.4,10.4,84,0.00,CLR,SKC,0.00,WeatherDisplay:10.37,2013-02-28 14:10:00,
2013-02-28 09:15:00,35.4,31.1,29.71,WNW,292,4.1,4.6,84,0.02,RA,SKC,0.02,WeatherDisplay:10.37,2013-02-28 14:15:00,
2013-02-28 09:20:00,35.4,31.1,29.71,WNW,292,4.6,9.2,84,0.02,RA,SKC,0.02,WeatherDisplay:10.37,2013-02-28 14:20:00,
2013-02-28 09:25:00,35.6,31.2,29.71,NW,315,4.9,8.1,84,0.02,,SKC,0.02,WeatherDisplay:10.37,2013-02-28 14:25:00,
2013-02-28 09:30:00,35.8,31.4,29.72,WNW,292,5.8,9.2,84,0.02,CLR,SKC,0.02,WeatherDisplay:10.37,2013-02-28 14:30:00,
2013-02-28 09:35:00,35.8,31.4,29.72,NW,315,8.1,11.5,84,0.02,CLR,SKC,0.02,WeatherDisplay:10.37,2013-02-28 14:35:00,
2013-02-28 09:40:00,36.0,31.6,29.72,NW,315,2.0,4.6,84,0.02,CLR,SKC,0.02,WeatherDisplay:10.37,2013-02-28 14:40:00,
2013-02-28 09:45:00,36.3,31.9,29.72,West,270,4.2,10.4,84,0.02,CLR,SKC,0.02,WeatherDisplay:10.37,2013-02-28 14:45:00,
2013-02-28 09:50:00,36.3,32.2,29.73,NW,315,3.5,4.6,85,0.04,RA,SKC,0.04,WeatherDisplay:10.37,2013-02-28 14:50:00,
2013-02-28 09:55:00,36.3,32.2,29.73,West,270,4.1,6.9,85,0.04,RA,SKC,0.04,WeatherDisplay:10.37,2013-02-28 14:55:00,
2013-02-28 10:00:00,36.3,32.2,29.73,West,270,2.3,4.6,85,0.04,CLR,SKC,0.04,WeatherDisplay:10.37,2013-02-28 15:00:00,
2013-02-28 10:05:00,36.5,32.4,29.73,SW,225,5.3,6.9,85,0.04,CLR,SKC,0.04,WeatherDisplay:10.37,2013-02-28 15:05:00,
2013-02-28 10:10:00,36.7,32.6,29.73,West,270,3.8,4.7,85,0.04,CLR,SKC,0.04,WeatherDisplay:10.37,2013-02-28 15:10:00,
2013-02-28 10:15:00,36.7,32.6,29.74,West,270,4.0,5.8,85,0.02,CLR,SKC,0.04,WeatherDisplay:10.37,2013-02-28 15:15:00,
2013-02-28 10:20:00,36.9,32.8,29.74,West,270,2.1,5.8,85,0.02,CLR,SKC,0.04,WeatherDisplay:10.37,2013-02-28 15:20:00,
2013-02-28 10:25:00,37.0,32.9,29.74,NW,315,5.4,8.1,85,0.02,CLR,SKC,0.04,WeatherDisplay:10.37,2013-02-28 15:25:00,
2013-02-28 10:30:00,37.2,33.1,29.74,WNW,292,4.7,9.2,85,0.02,CLR,SKC,0.04,WeatherDisplay:10.37,2013-02-28 15:30:00,
2013-02-28 10:35:00,37.2,33.1,29.74,NNW,338,5.1,5.8,85,0.02,CLR,SKC,0.04,WeatherDisplay:10.37,2013-02-28 15:35:00,
2013-02-28 10:40:00,37.2,33.1,29.75,WNW,292,4.9,6.9,85,0.02,CLR,SKC,0.04,WeatherDisplay:10.37,2013-02-28 15:40:00,
2013-02-28 10:45:00,37.2,33.1,29.75,WNW,292,3.4,5.8,85,0.02,CLR,SKC,0.04,WeatherDisplay:10.37,2013-02-28 15:45:00,
2013-02-28 10:50:00,37.6,33.5,29.75,NW,315,5.8,9.2,85,0.00,CLR,SKC,0.04,WeatherDisplay:10.37,2013-02-28 15:50:00,
2013-02-28 10:55:00,37.6,33.5,29.75,WNW,292,2.2,3.5,85,0.00,CLR,SKC,0.04,WeatherDisplay:10.37,2013-02-28 15:55:00,
2013-02-28 11:00:00,37.9,33.8,29.76,NW,315,5.2,6.9,85,0.00,CLR,SKC,0.04,WeatherDisplay:10.37,2013-02-28 16:00:00,
2013-02-28 11:05:00,37.8,33.7,29.76,West,270,4.4,5.8,85,0.00,CLR,SKC,0.04,WeatherDisplay:10.37,2013-02-28 16:05:00,
2013-02-28 11:10:00,37.9,33.5,29.75,North,0,2.2,5.8,84,0.00,CLR,SKC,0.04,WeatherDisplay:10.37,2013-02-28 16:10:00,
2013-02-28 11:15:00,37.9,33.5,29.76,West,270,5.8,6.9,84,0.00,CLR,SKC,0.04,WeatherDisplay:10.37,2013-02-28 16:15:00,
2013-02-28 11:20:00,37.8,33.4,29.76,NNW,338,5.2,9.2,84,0.00,CLR,SKC,0.04,WeatherDisplay:10.37,2013-02-28 16:20:00,
2013-02-28 11:25:00,37.6,33.2,29.76,WNW,292,4.2,5.8,84,0.00,CLR,SKC,0.04,WeatherDisplay:10.37,2013-02-28 16:25:00,
2013-02-28 11:30:00,37.4,33.3,29.77,North,0,4.8,9.2,85,0.00,CLR,SKC,0.04,WeatherDisplay:10.37,2013-02-28 16:30:00,
2013-02-28 11:35:00,37.4,33.3,29.77,West,270,4.5,9.2,85,0.00,CLR,SKC,0.04,WeatherDisplay:10.37,2013-02-28 16:35:00,
2013-02-28 11:40:00,37.6,33.5,29.77,WNW,292,4.7,10.4,85,0.00,CLR,SKC,0.04,WeatherDisplay:10.37,2013-02-28 16:40:00,
2013-02-28 11:45:00,37.8,33.7,29.77,NW,315,5.8,8.1,85,0.00,CLR,SKC,0.04,WeatherDisplay:10.37,2013-02-28 16:45:00,
2013-02-28 11:50:00,37.8,33.4,29.77,NW,315,5.5,6.9,84,0.00,CLR,SKC,0.04,WeatherDisplay:10.37,2013-02-28 16:50:00,
2013-02-28 11:55:00,38.1,33.7,29.77,NW,315,5.7,8.1,84,0.00,CLR,SKC,0.04,WeatherDisplay:10.37,2013-02-28 16:55:00,
2013-02-28 12:00:00,38.3,34.2,29.78,West,270,5.7,10.4,85,0.00,CLR,SKC,0.04,WeatherDisplay:10.37,2013-02-28 17:00:00,
2013-02-28 12:05:00,38.5,34.4,29.79,West,270,8.1,10.4,85,0.00,CLR,SKC,0.04,WeatherDisplay:10.37,2013-02-28 17:05:00,
2013-02-28 12:10:00,38.5,34.4,29.79,West,270,3.5,9.2,85,0.00,CLR,SKC,0.04,WeatherDisplay:10.37,2013-02-28 17:10:00,
2013-02-28 12:15:00,38.8,34.7,29.79,WNW,292,5.8,8.1,85,0.00,CLR,SKC,0.04,WeatherDisplay:10.37,2013-02-28 17:15:00,
2013-02-28 12:20:00,38.8,34.4,29.79,WNW,292,5.0,6.9,84,0.00,CLR,SKC,0.04,WeatherDisplay:10.37,2013-02-28 17:20:00,
2013-02-28 12:25:00,38.8,34.4,29.79,NNW,338,4.5,8.9,84,0.00,CLR,SKC,0.04,WeatherDisplay:10.37,2013-02-28 17:25:00,
2013-02-28 12:30:00,39.0,34.6,29.79,NW,315,7.0,8.1,84,0.00,CLR,SKC,0.04,WeatherDisplay:10.37,2013-02-28 17:30:00,
2013-02-28 12:35:00,39.0,34.6,29.79,NW,315,5.9,8.1,84,0.00,CLR,SKC,0.04,WeatherDisplay:10.37,2013-02-28 17:35:00,
2013-02-28 12:40:00,39.4,34.9,29.79,NW,315,3.8,6.9,84,0.00,CLR,SKC,0.04,WeatherDisplay:10.37,2013-02-28 17:40:00,
2013-02-28 12:45:00,39.7,35.3,29.79,NW,315,4.6,4.6,84,0.00,CLR,SKC,0.04,WeatherDisplay:10.37,2013-02-28 17:45:00,
2013-02-28 12:50:00,39.9,35.2,29.79,NNW,338,5.3,9.2,83,0.00,CLR,SKC,0.04,WeatherDisplay:10.37,2013-02-28 17:50:00,
2013-02-28 12:55:00,39.9,35.2,29.79,NNW,338,4.9,9.6,83,0.00,CLR,SKC,0.04,WeatherDisplay:10.37,2013-02-28 17:55:00,
2013-02-28 13:00:00,39.9,35.2,29.79,NNW,338,6.2,10.4,83,0.00,CLR,SKC,0.04,WeatherDisplay:10.37,2013-02-28 18:00:00,
2013-02-28 13:05:00,40.1,35.4,29.79,NW,315,6.3,10.4,83,0.00,CLR,SKC,0.04,WeatherDisplay:10.37,2013-02-28 18:05:00,
2013-02-28 13:10:00,40.3,35.2,29.79,West,270,4.3,7.4,82,0.00,CLR,SKC,0.04,WeatherDisplay:10.37,2013-02-28 18:10:00,
2013-02-28 13:15:00,40.3,35.2,29.79,NNW,338,5.6,5.8,82,0.00,CLR,SKC,0.04,WeatherDisplay:10.37,2013-02-28 18:15:00,
2013-02-28 13:20:00,40.1,35.0,29.79,NNW,338,7.3,10.4,82,0.00,CLR,SKC,0.04,WeatherDisplay:10.37,2013-02-28 18:20:00,
2013-02-28 13:25:00,40.1,35.0,29.79,NNW,338,6.7,10.4,82,0.00,CLR,SKC,0.04,WeatherDisplay:10.37,2013-02-28 18:25:00,
2013-02-28 13:30:00,40.1,35.0,29.79,WNW,292,6.3,6.9,82,0.00,CLR,SKC,0.04,WeatherDisplay:10.37,2013-02-28 18:30:00,
2013-02-28 13:35:00,40.1,35.0,29.79,NW,315,7.8,10.5,82,0.00,CLR,SKC,0.04,WeatherDisplay:10.37,2013-02-28 18:35:00,
2013-02-28 13:40:00,40.1,34.7,29.79,WNW,292,8.3,11.5,81,0.00,CLR,SKC,0.04,WeatherDisplay:10.37,2013-02-28 18:40:00,
2013-02-28 13:45:00,39.9,34.6,29.79,NW,315,6.1,9.2,81,0.00,CLR,SKC,0.04,WeatherDisplay:10.37,2013-02-28 18:45:00,
2013-02-28 13:50:00,39.9,34.6,29.79,NNW,338,6.0,8.1,81,0.00,CLR,SKC,0.04,WeatherDisplay:10.37,2013-02-28 18:50:00,
2013-02-28 13:55:00,39.9,34.6,29.80,NNW,338,7.6,9.2,81,0.00,CLR,SKC,0.04,WeatherDisplay:10.37,2013-02-28 18:55:00,
2013-02-28 14:00:00,40.3,34.9,29.79,NNW,338,4.8,8.1,81,0.00,CLR,SKC,0.04,WeatherDisplay:10.37,2013-02-28 19:00:00,
2013-02-28 14:05:00,40.6,35.3,29.80,NW,315,6.4,8.1,81,0.00,CLR,SKC,0.04,WeatherDisplay:10.37,2013-02-28 19:05:00,
2013-02-28 14:10:00,41.0,35.6,29.80,NNW,338,9.3,12.7,81,0.00,CLR,SKC,0.04,WeatherDisplay:10.37,2013-02-28 19:10:00,
2013-02-28 14:15:00,41.0,35.3,29.80,NW,315,5.9,6.9,80,0.00,CLR,SKC,0.04,WeatherDisplay:10.37,2013-02-28 19:15:00,
2013-02-28 14:20:00,40.8,35.1,29.80,West,270,5.6,9.2,80,0.00,CLR,SKC,0.04,WeatherDisplay:10.37,2013-02-28 19:20:00,
2013-02-28 14:25:00,40.8,35.1,29.80,NNW,338,4.8,5.8,80,0.00,CLR,SKC,0.04,WeatherDisplay:10.37,2013-02-28 19:25:00,
2013-02-28 14:30:00,40.8,35.1,29.80,NW,315,7.9,10.4,80,0.00,CLR,SKC,0.04,WeatherDisplay:10.37,2013-02-28 19:30:00,
2013-02-28 14:35:00,40.8,35.1,29.80,NW,315,7.6,11.5,80,0.00,CLR,SKC,0.04,WeatherDisplay:10.37,2013-02-28 19:35:00,
2013-02-28 14:40:00,40.5,34.8,29.80,NNW,338,6.0,11.5,80,0.00,CLR,SKC,0.04,WeatherDisplay:10.37,2013-02-28 19:40:00,
2013-02-28 14:45:00,40.5,34.8,29.81,WNW,292,5.4,6.9,80,0.00,CLR,SKC,0.04,WeatherDisplay:10.37,2013-02-28 19:45:00,
2013-02-28 14:50:00,40.6,35.3,29.81,North,0,7.5,10.4,81,0.00,CLR,SKC,0.04,WeatherDisplay:10.37,2013-02-28 19:50:00,
2013-02-28 14:55:00,40.5,34.8,29.81,NE,45,4.0,5.8,80,0.00,CLR,SKC,0.04,WeatherDisplay:10.37,2013-02-28 19:55:00,
2013-02-28 15:00:00,40.3,34.6,29.82,NW,315,6.6,12.7,80,0.00,CLR,SKC,0.04,WeatherDisplay:10.37,2013-02-28 20:00:00,
2013-02-28 15:05:00,40.3,34.6,29.81,NW,315,6.6,10.4,80,0.00,CLR,SKC,0.04,WeatherDisplay:10.37,2013-02-28 20:05:00,
2013-02-28 15:10:00,39.9,34.2,29.81,NW,315,5.0,13.8,80,0.00,CLR,SKC,0.04,WeatherDisplay:10.37,2013-02-28 20:10:00,
2013-02-28 15:15:00,39.9,34.6,29.81,NW,315,5.0,8.1,81,0.00,CLR,SKC,0.04,WeatherDisplay:10.37,2013-02-28 20:15:00,
2013-02-28 15:20:00,39.7,34.4,29.81,NNW,338,6.7,8.1,81,0.00,CLR,SKC,0.04,WeatherDisplay:10.37,2013-02-28 20:20:00,
2013-02-28 15:25:00,39.4,34.0,29.80,NW,315,7.0,11.5,81,0.00,CLR,SKC,0.04,WeatherDisplay:10.37,2013-02-28 20:25:00,
2013-02-28 15:30:00,39.0,34.0,29.81,NW,315,7.2,10.4,82,0.00,CLR,SKC,0.04,WeatherDisplay:10.37,2013-02-28 20:30:00,
2013-02-28 15:35:00,38.8,33.8,29.81,WNW,292,3.1,4.6,82,0.00,CLR,SKC,0.04,WeatherDisplay:10.37,2013-02-28 20:35:00,
2013-02-28 15:41:00,39.0,34.0,29.81,NW,315,9.7,11.5,82,0.00,CLR,SKC,0.04,WeatherDisplay:10.37,2013-02-28 20:41:00,
2013-02-28 15:46:00,39.0,34.0,29.80,NW,315,6.6,9.2,82,0.00,CLR,SKC,0.04,WeatherDisplay:10.37,2013-02-28 20:46:00,
2013-02-28 15:51:00,38.8,33.8,29.81,West,270,5.9,9.2,82,0.00,CLR,SKC,0.04,WeatherDisplay:10.37,2013-02-28 20:51:00,
2013-02-28 15:56:00,38.7,33.6,29.81,NNW,338,7.5,9.4,82,0.00,CLR,SKC,0.04,WeatherDisplay:10.37,2013-02-28 20:56:00,
2013-02-28 16:01:00,38.5,33.8,29.82,West,270,4.6,6.9,83,0.00,CLR,SKC,0.04,WeatherDisplay:10.37,2013-02-28 21:01:00,
2013-02-28 16:06:00,38.8,34.1,29.81,NNW,338,6.2,10.4,83,0.00,CLR,SKC,0.04,WeatherDisplay:10.37,2013-02-28 21:06:00,
2013-02-28 16:11:00,38.5,33.8,29.82,West,270,4.9,10.4,83,0.00,CLR,SKC,0.04,WeatherDisplay:10.37,2013-02-28 21:11:00,
2013-02-28 16:16:00,38.5,33.8,29.82,West,270,9.5,15.0,83,0.00,CLR,SKC,0.04,WeatherDisplay:10.37,2013-02-28 21:16:00,
2013-02-28 16:21:00,38.5,33.8,29.82,NNW,338,7.2,11.5,83,0.00,CLR,SKC,0.04,WeatherDisplay:10.37,2013-02-28 21:21:00,
2013-02-28 16:26:00,38.3,33.6,29.83,WNW,292,5.2,10.4,83,0.00,CLR,SKC,0.04,WeatherDisplay:10.37,2013-02-28 21:26:00,
2013-02-28 16:31:00,38.1,33.4,29.82,North,0,5.9,11.5,83,0.00,CLR,SKC,0.04,WeatherDisplay:10.37,2013-02-28 21:31:00,
2013-02-28 16:36:00,38.1,33.4,29.83,NNW,338,6.7,8.0,83,0.00,CLR,SKC,0.04,WeatherDisplay:10.37,2013-02-28 21:36:00,
2013-02-28 16:41:00,38.1,33.4,29.83,NNW,338,7.2,9.2,83,0.00,CLR,SKC,0.04,WeatherDisplay:10.37,2013-02-28 21:41:00,
2013-02-28 16:46:00,37.9,33.2,29.83,WNW,292,4.0,9.2,83,0.00,CLR,SKC,0.04,WeatherDisplay:10.37,2013-02-28 21:46:00,
2013-02-28 16:51:00,37.8,33.1,29.84,NNW,338,6.7,10.4,83,0.00,CLR,SKC,0.04,WeatherDisplay:10.37,2013-02-28 21:51:00,
2013-02-28 16:56:00,37.6,33.2,29.84,NW,315,8.0,9.2,84,0.00,CLR,SKC,0.04,WeatherDisplay:10.37,2013-02-28 21:56:00,
2013-02-28 17:01:00,37.2,32.8,29.84,NW,315,6.8,9.2,84,0.00,CLR,SKC,0.04,WeatherDisplay:10.37,2013-02-28 22:01:00,
2013-02-28 17:06:00,36.9,32.5,29.84,NW,315,2.3,4.6,84,0.00,CLR,SKC,0.04,WeatherDisplay:10.37,2013-02-28 22:06:00,
2013-02-28 17:11:00,36.5,32.1,29.85,NW,315,5.2,12.7,84,0.00,CLR,SKC,0.04,WeatherDisplay:10.37,2013-02-28 22:11:00,
2013-02-28 17:16:00,36.3,31.9,29.85,NNW,338,3.2,6.9,84,0.00,CLR,SKC,0.04,WeatherDisplay:10.37,2013-02-28 22:16:00,
2013-02-28 17:21:00,36.3,31.9,29.85,NW,315,6.4,10.4,84,0.00,CLR,SKC,0.04,WeatherDisplay:10.37,2013-02-28 22:21:00,
2013-02-28 17:26:00,36.1,31.8,29.85,NNW,338,6.7,17.3,84,0.00,CLR,SKC,0.04,WeatherDisplay:10.37,2013-02-28 22:26:00,
2013-02-28 17:31:00,36.1,31.8,29.86,NW,315,5.9,9.2,84,0.00,CLR,SKC,0.04,WeatherDisplay:10.37,2013-02-28 22:31:00,
2013-02-28 17:36:00,36.0,31.6,29.86,NW,315,5.7,10.4,84,0.00,CLR,SKC,0.04,WeatherDisplay:10.37,2013-02-28 22:36:00,
2013-02-28 17:41:00,36.0,31.6,29.86,North,0,13.9,17.3,84,0.00,CLR,SKC,0.04,WeatherDisplay:10.37,2013-02-28 22:41:00,
2013-02-28 17:46:00,35.8,31.4,29.87,NW,315,5.3,9.2,84,0.00,CLR,SKC,0.04,WeatherDisplay:10.37,2013-02-28 22:46:00,
2013-02-28 17:51:00,35.4,31.1,29.87,NW,315,5.8,10.4,84,0.00,CLR,SKC,0.04,WeatherDisplay:10.37,2013-02-28 22:51:00,
2013-02-28 17:56:00,35.2,30.9,29.87,NNW,338,7.1,9.2,84,0.00,CLR,SKC,0.04,WeatherDisplay:10.37,2013-02-28 22:56:00,
2013-02-28 18:01:00,35.2,30.9,29.87,NNW,338,9.4,11.5,84,0.00,CLR,SKC,0.04,WeatherDisplay:10.37,2013-02-28 23:01:00,
2013-02-28 18:06:00,35.2,30.9,29.87,NW,315,4.0,11.5,84,0.00,CLR,SKC,0.04,WeatherDisplay:10.37,2013-02-28 23:06:00,
2013-02-28 18:11:00,35.1,30.7,29.87,NW,315,5.4,12.7,84,0.00,CLR,SKC,0.04,WeatherDisplay:10.37,2013-02-28 23:11:00,
2013-02-28 18:16:00,35.1,30.7,29.87,NNW,338,4.8,10.4,84,0.00,CLR,SKC,0.04,WeatherDisplay:10.37,2013-02-28 23:16:00,
2013-02-28 18:21:00,34.9,30.5,29.87,WSW,248,8.1,12.7,84,0.00,CLR,SKC,0.04,WeatherDisplay:10.37,2013-02-28 23:21:00,
2013-02-28 18:26:00,34.9,30.5,29.87,NNW,338,7.5,10.4,84,0.00,CLR,SKC,0.04,WeatherDisplay:10.37,2013-02-28 23:26:00,
2013-02-28 18:31:00,34.9,30.5,29.87,WNW,292,6.3,10.4,84,0.00,CLR,SKC,0.04,WeatherDisplay:10.37,2013-02-28 23:31:00,
2013-02-28 18:36:00,34.7,30.4,29.87,North,0,7.7,10.7,84,0.00,CLR,SKC,0.04,WeatherDisplay:10.37,2013-02-28 23:36:00,
2013-02-28 18:41:00,34.7,30.4,29.88,NNW,338,4.6,5.8,84,0.00,CLR,SKC,0.04,WeatherDisplay:10.37,2013-02-28 23:41:00,
2013-02-28 18:46:00,34.7,30.4,29.88,North,0,6.3,10.4,84,0.00,CLR,SKC,0.04,WeatherDisplay:10.37,2013-02-28 23:46:00,
2013-02-28 18:51:00,34.5,30.2,29.88,West,270,4.5,8.1,84,0.00,CLR,SKC,0.04,WeatherDisplay:10.37,2013-02-28 23:51:00,
2013-02-28 18:56:00,34.5,30.2,29.88,NW,315,6.7,13.8,84,0.00,CLR,SKC,0.04,WeatherDisplay:10.37,2013-02-28 23:56:00,
2013-02-28 19:01:00,34.3,30.0,29.88,North,0,5.6,5.8,84,0.00,CLR,SKC,0.04,WeatherDisplay:10.37,2013-03-01 00:01:00,
2013-02-28 19:06:00,34.3,30.0,29.88,WNW,292,9.2,10.4,84,0.00,CLR,SKC,0.04,WeatherDisplay:10.37,2013-03-01 00:06:00,
2013-02-28 19:11:00,34.3,30.0,29.88,NW,315,5.0,5.0,84,0.00,CLR,SKC,0.04,WeatherDisplay:10.37,2013-03-01 00:11:00,
2013-02-28 19:16:00,34.3,30.0,29.89,NNW,338,5.3,9.2,84,0.00,CLR,SKC,0.04,WeatherDisplay:10.37,2013-03-01 00:16:00,
2013-02-28 19:21:00,34.2,29.8,29.89,North,0,8.4,8.4,84,0.00,CLR,SKC,0.04,WeatherDisplay:10.37,2013-03-01 00:21:00,
2013-02-28 19:26:00,34.2,29.8,29.89,North,0,7.1,9.2,84,0.00,CLR,SKC,0.04,WeatherDisplay:10.37,2013-03-01 00:26:00,
2013-02-28 19:31:00,34.2,29.8,29.89,NNW,338,6.5,10.4,84,0.00,CLR,SKC,0.04,WeatherDisplay:10.37,2013-03-01 00:31:00,
2013-02-28 19:36:00,34.2,29.8,29.89,NNW,338,7.2,10.4,84,0.00,CLR,SKC,0.04,WeatherDisplay:10.37,2013-03-01 00:36:00,
2013-02-28 19:41:00,34.2,29.8,29.90,NNW,338,2.1,5.8,84,0.00,CLR,SKC,0.04,WeatherDisplay:10.37,2013-03-01 00:41:00,
2013-02-28 19:46:00,34.0,29.7,29.89,NNW,338,3.7,8.1,84,0.00,CLR,SKC,0.04,WeatherDisplay:10.37,2013-03-01 00:46:00,
2013-02-28 19:51:00,34.0,29.9,29.90,NNE,22,2.2,4.6,85,0.00,CLR,SKC,0.04,WeatherDisplay:10.37,2013-03-01 00:51:00,
2013-02-28 19:56:00,34.0,29.9,29.90,North,0,7.2,8.1,85,0.00,CLR,SKC,0.04,WeatherDisplay:10.37,2013-03-01 00:56:00,
2013-02-28 20:01:00,34.0,29.9,29.89,NNE,22,6.5,12.7,85,0.00,CLR,SKC,0.04,WeatherDisplay:10.37,2013-03-01 01:01:00,
2013-02-28 20:06:00,33.8,29.8,29.90,NNE,22,3.8,10.4,85,0.00,CLR,SKC,0.04,WeatherDisplay:10.37,2013-03-01 01:06:00,
2013-02-28 20:11:00,33.6,29.6,29.89,NNW,338,3.3,9.2,85,0.00,CLR,SKC,0.04,WeatherDisplay:10.37,2013-03-01 01:11:00,
2013-02-28 20:16:00,33.6,29.6,29.90,North,0,2.6,4.6,85,0.00,CLR,SKC,0.04,WeatherDisplay:10.37,2013-03-01 01:16:00,
2013-02-28 20:21:00,33.6,29.6,29.90,NNW,338,6.1,10.4,85,0.00,CLR,SKC,0.04,WeatherDisplay:10.37,2013-03-01 01:21:00,
2013-02-28 20:26:00,33.6,29.6,29.90,NW,315,4.7,6.5,85,0.00,CLR,SKC,0.04,WeatherDisplay:10.37,2013-03-01 01:26:00,
2013-02-28 20:31:00,33.6,29.6,29.89,North,0,2.6,5.8,85,0.00,CLR,SKC,0.04,WeatherDisplay:10.37,2013-03-01 01:31:00,
2013-02-28 20:36:00,33.6,29.6,29.90,NNW,338,7.5,10.4,85,0.00,CLR,SKC,0.04,WeatherDisplay:10.37,2013-03-01 01:36:00,
2013-02-28 20:41:00,33.6,29.6,29.90,NNW,338,7.1,11.5,85,0.00,CLR,SKC,0.04,WeatherDisplay:10.37,2013-03-01 01:41:00,
2013-02-28 20:46:00,33.6,29.6,29.89,NW,315,3.4,8.1,85,0.00,CLR,SKC,0.04,WeatherDisplay:10.37,2013-03-01 01:46:00,
2013-02-28 20:51:00,33.6,29.6,29.90,NW,315,3.9,4.6,85,0.00,CLR,SKC,0.04,WeatherDisplay:10.37,2013-03-01 01:51:00,
2013-02-28 20:56:00,33.6,29.3,29.89,NW,315,5.2,6.9,84,0.00,CLR,SKC,0.04,WeatherDisplay:10.37,2013-03-01 01:56:00,
2013-02-28 21:01:00,33.6,29.3,29.90,NW,315,4.3,6.9,84,0.00,CLR,SKC,0.04,WeatherDisplay:10.37,2013-03-01 02:01:00,
2013-02-28 21:06:00,33.4,29.1,29.89,NNW,338,2.9,4.6,84,0.00,CLR,SKC,0.04,WeatherDisplay:10.37,2013-03-01 02:06:00,
2013-02-28 21:11:00,33.4,29.1,29.89,NW,315,7.5,12.7,84,0.00,CLR,SKC,0.04,WeatherDisplay:10.37,2013-03-01 02:11:00,
2013-02-28 21:16:00,33.4,29.1,29.90,NE,45,2.3,6.9,84,0.00,CLR,SKC,0.04,WeatherDisplay:10.37,2013-03-01 02:16:00,
2013-02-28 21:21:00,33.4,29.1,29.89,North,0,5.5,6.9,84,0.00,CLR,SKC,0.04,WeatherDisplay:10.37,2013-03-01 02:21:00,
2013-02-28 21:26:00,33.4,29.1,29.89,NW,315,3.8,6.9,84,0.00,CLR,SKC,0.04,WeatherDisplay:10.37,2013-03-01 02:26:00,
2013-02-28 21:31:00,33.3,28.9,29.89,North,0,1.7,3.5,84,0.00,CLR,SKC,0.04,WeatherDisplay:10.37,2013-03-01 02:31:00,
2013-02-28 21:36:00,33.3,28.9,29.89,NW,315,2.3,4.6,84,0.00,CLR,SKC,0.04,WeatherDisplay:10.37,2013-03-01 02:36:00,
2013-02-28 21:41:00,33.3,28.9,29.90,NNE,22,1.7,3.5,84,0.00,CLR,SKC,0.04,WeatherDisplay:10.37,2013-03-01 02:41:00,
2013-02-28 21:46:00,33.3,28.9,29.89,North,0,2.6,3.5,84,0.00,CLR,SKC,0.04,WeatherDisplay:10.37,2013-03-01 02:46:00,
2013-02-28 21:51:00,33.3,28.9,29.89,NNW,338,4.1,5.8,84,0.00,CLR,SKC,0.04,WeatherDisplay:10.37,2013-03-01 02:51:00,
2013-02-28 21:56:00,33.3,28.9,29.89,North,0,5.7,10.4,84,0.00,CLR,SKC,0.04,WeatherDisplay:10.37,2013-03-01 02:56:00,
2013-02-28 22:01:00,33.3,28.7,29.89,NNW,338,3.1,5.8,83,0.00,CLR,SKC,0.04,WeatherDisplay:10.37,2013-03-01 03:01:00,
2013-02-28 22:06:00,33.3,28.7,29.89,NE,45,7.3,11.5,83,0.00,CLR,SKC,0.04,WeatherDisplay:10.37,2013-03-01 03:06:00,
2013-02-28 22:11:00,33.1,28.5,29.90,NW,315,1.2,4.7,83,0.00,CLR,SKC,0.04,WeatherDisplay:10.37,2013-03-01 03:11:00,
2013-02-28 22:16:00,33.3,28.7,29.90,NNW,338,5.0,8.9,83,0.00,CLR,SKC,0.04,WeatherDisplay:10.37,2013-03-01 03:16:00,
2013-02-28 22:21:00,33.3,28.7,29.90,North,0,4.4,10.4,83,0.00,CLR,SKC,0.04,WeatherDisplay:10.37,2013-03-01 03:21:00,
2013-02-28 22:26:00,33.3,28.7,29.90,NW,315,5.1,8.1,83,0.00,CLR,SKC,0.04,WeatherDisplay:10.37,2013-03-01 03:26:00,
2013-02-28 22:31:00,33.3,28.7,29.90,North,0,3.2,7.8,83,0.00,CLR,SKC,0.04,WeatherDisplay:10.37,2013-03-01 03:31:00,
2013-02-28 22:36:00,33.3,28.4,29.90,NNW,338,7.0,11.5,82,0.00,CLR,SKC,0.04,WeatherDisplay:10.37,2013-03-01 03:36:00,
2013-02-28 22:41:00,33.3,28.4,29.91,NW,315,8.7,11.5,82,0.00,CLR,SKC,0.04,WeatherDisplay:10.37,2013-03-01 03:41:00,
2013-02-28 22:46:00,33.3,28.4,29.91,NNW,338,5.6,6.9,82,0.00,CLR,SKC,0.04,WeatherDisplay:10.37,2013-03-01 03:46:00,
2013-02-28 22:51:00,33.3,28.4,29.91,NW,315,8.3,10.4,82,0.00,CLR,SKC,0.04,WeatherDisplay:10.37,2013-03-01 03:51:00,
2013-02-28 22:56:00,33.1,28.2,29.91,NNW,338,3.8,5.8,82,0.00,CLR,SKC,0.04,WeatherDisplay:10.37,2013-03-01 03:56:00,
2013-02-28 23:01:00,33.1,28.2,29.91,NNW,338,5.3,9.2,82,0.00,CLR,SKC,0.04,WeatherDisplay:10.37,2013-03-01 04:01:00,
2013-02-28 23:06:00,33.1,28.2,29.92,NW,315,4.1,8.1,82,0.00,CLR,SKC,0.04,WeatherDisplay:10.37,2013-03-01 04:06:00,
2013-02-28 23:11:00,33.1,28.2,29.92,NW,315,6.0,8.1,82,0.00,CLR,SKC,0.04,WeatherDisplay:10.37,2013-03-01 04:11:00,
2013-02-28 23:16:00,33.1,28.2,29.92,NNW,338,2.5,10.1,82,0.00,CLR,SKC,0.04,WeatherDisplay:10.37,2013-03-01 04:16:00,
2013-02-28 23:21:00,33.1,28.2,29.92,NW,315,4.6,6.3,82,0.00,CLR,SKC,0.04,WeatherDisplay:10.37,2013-03-01 04:21:00,
2013-02-28 23:26:00,33.1,28.2,29.92,WNW,292,4.4,8.1,82,0.00,CLR,SKC,0.04,WeatherDisplay:10.37,2013-03-01 04:26:00,
2013-02-28 23:31:00,33.1,28.2,29.92,NW,315,5.3,5.8,82,0.00,CLR,SKC,0.04,WeatherDisplay:10.37,2013-03-01 04:31:00,
2013-02-28 23:36:00,33.1,28.2,29.92,NNE,22,4.2,5.8,82,0.00,CLR,SKC,0.04,WeatherDisplay:10.37,2013-03-01 04:36:00,
2013-02-28 23:41:00,33.1,28.2,29.92,NNW,338,3.5,9.2,82,0.00,CLR,SKC,0.04,WeatherDisplay:10.37,2013-03-01 04:41:00,
2013-02-28 23:46:00,33.1,28.5,29.92,NNW,338,5.3,8.1,83,0.00,CLR,SKC,0.04,WeatherDisplay:10.37,2013-03-01 04:46:00,
2013-02-28 23:51:00,33.1,28.5,29.92,NW,315,4.2,7.6,83,0.00,CLR,SKC,0.04,WeatherDisplay:10.37,2013-03-01 04:51:00,
2013-02-28 23:56:00,33.1,28.5,29.92,North,0,4.8,6.9,83,0.00,CLR,SKC,0.04,WeatherDisplay:10.37,2013-03-01 04:56:00,